Time;durP1;ratioP1;P1;durP2;ratioP2;P2;SDS_P1;SDS_P2;PMS_P1;PMS_P2;Temp;Humidity;BMP_temperature;BMP_pressure;BME280_temperature;BME280_humidity;BME280_pressure;Samples;Min_cycle;Max_cycle;Signal;HPM_P1;HPM_P2
2022/01/25 00:08:24;;;;;;;76.38;40.97;;;;;;;1.23;100.00;103270.63;5252966;28;20478;-66
2022/01/25 00:25:30;;;;;;;78.07;43.38;;;;;;;1.38;100.00;103275.91;5239036;28;20036;-66
2022/01/25 00:28:18;;;;;;;74.55;40.08;;;;;;;1.37;100.00;103274.16;5239329;28;20044;-66
2022/01/25 00:31:13;;;;;;;73.85;40.83;;;;;;;1.36;100.00;103270.66;5246353;28;20033;-66
2022/01/25 00:33:46;;;;;;;78.38;41.58;;;;;;;1.40;100.00;103274.19;5250158;28;20037;-66
2022/01/25 00:36:22;;;;;;;80.15;40.75;;;;;;;1.42;100.00;103279.41;5247523;28;20044;-66
2022/01/25 00:38:55;;;;;;;73.85;40.40;;;;;;;1.45;100.00;103279.44;5246252;28;20032;-66
2022/01/25 00:41:27;;;;;;;75.78;40.10;;;;;;;1.44;100.00;103278.56;5245777;28;20112;-66
2022/01/25 00:44:00;;;;;;;74.05;40.97;;;;;;;1.50;100.00;103275.06;5241247;28;20091;-66
2022/01/25 00:46:31;;;;;;;76.05;40.35;;;;;;;1.47;100.00;103278.56;5241174;28;20380;-66
2022/01/25 00:49:03;;;;;;;74.47;40.35;;;;;;;1.53;100.00;103281.22;5238950;28;20466;-66
2022/01/25 00:54:27;;;;;;;75.80;39.78;;;;;;;1.52;100.00;103268.91;5243492;28;20033;-66
2022/01/25 00:56:59;;;;;;;72.18;39.20;;;;;;;1.56;100.00;103269.78;5253832;28;20367;-66
2022/01/25 00:59:31;;;;;;;70.22;38.72;;;;;;;1.57;100.00;103268.91;5250318;28;20036;-66
2022/01/25 01:02:06;;;;;;;74.65;38.00;;;;;;;1.54;100.00;103264.53;5246391;28;20036;-66
2022/01/25 01:04:40;;;;;;;73.03;38.25;;;;;;;1.56;100.00;103265.41;5254021;28;20047;-66
2022/01/25 01:07:14;;;;;;;70.93;38.28;;;;;;;1.58;100.00;103264.53;5255489;28;20041;-66
2022/01/25 01:09:49;;;;;;;80.05;41.15;;;;;;;1.58;100.00;103268.03;5251474;28;20028;-66
2022/01/25 01:29:02;;;;;;;73.50;38.63;;;;;;;1.59;100.00;103272.41;5250317;28;20043;-66
2022/01/25 01:29:24;;;;;;;75.35;40.47;;;;;;;1.60;100.00;103274.19;5247183;28;20041;-66
2022/01/25 01:32:24;;;;;;;71.45;38.33;;;;;;;1.61;100.00;103278.59;5243990;28;20079;-66
2022/01/25 01:48:25;;;;;;;75.65;38.83;;;;;;;1.62;100.00;103277.69;5249850;28;20435;-66
2022/01/25 01:51:05;;;;;;;72.13;37.67;;;;;;;1.68;100.00;103277.69;5249139;28;20091;-66
2022/01/25 01:53:37;;;;;;;71.35;38.25;;;;;;;1.71;100.00;103277.69;5243351;28;20108;-66
2022/01/25 01:56:08;;;;;;;74.35;40.10;;;;;;;1.74;100.00;103271.53;5245938;28;20029;-66
2022/01/25 01:58:40;;;;;;;71.93;37.17;;;;;;;1.74;100.00;103282.06;5251836;28;20108;-66
2022/01/25 02:01:16;;;;;;;71.80;39.58;;;;;;;1.74;100.00;103287.31;5248695;28;20087;-66
2022/01/25 02:03:47;;;;;;;72.47;37.00;;;;;;;1.79;100.00;103288.22;5248913;28;20036;-66
2022/01/25 02:06:19;;;;;;;70.35;38.00;;;;;;;1.78;100.00;103281.19;5242205;28;20495;-66
2022/01/25 02:08:50;;;;;;;68.50;36.22;;;;;;;1.79;100.00;103276.81;5244629;28;20029;-66
2022/01/25 02:11:22;;;;;;;70.43;37.20;;;;;;;1.79;100.00;103277.69;5249122;28;20037;-66
2022/01/25 02:13:54;;;;;;;68.90;37.42;;;;;;;1.84;100.00;103269.78;5245924;28;20195;-66
2022/01/25 02:24:47;;;;;;;77.10;38.92;;;;;;;1.85;100.00;103264.50;5249351;28;20040;-66
2022/01/25 02:27:19;;;;;;;75.80;40.15;;;;;;;1.88;100.00;103261.00;5253389;28;20036;-66
2022/01/25 02:29:50;;;;;;;75.00;38.42;;;;;;;1.84;100.00;103262.78;5249737;28;20021;-66
2022/01/25 02:32:21;;;;;;;77.20;40.55;;;;;;;1.88;100.00;103266.25;5245281;28;20036;-66
2022/01/25 02:34:53;;;;;;;73.35;38.30;;;;;;;1.89;100.00;103260.13;5248794;28;20060;-66
2022/01/25 02:37:24;;;;;;;74.68;39.63;;;;;;;1.94;100.00;103258.38;5248667;28;20037;-66
2022/01/25 02:39:55;;;;;;;80.38;40.40;;;;;;;1.89;100.00;103249.59;5252198;28;20116;-66
2022/01/25 02:42:26;;;;;;;79.53;40.30;;;;;;;1.94;100.00;103245.22;5248339;28;20025;-66
2022/01/25 02:44:58;;;;;;;77.97;39.78;;;;;;;1.98;100.00;103246.09;5243958;28;20510;-66
2022/01/25 02:50:19;;;;;;;76.95;40.15;;;;;;;1.91;100.00;103242.56;5248614;28;20044;-66
2022/01/25 02:52:50;;;;;;;81.57;39.88;;;;;;;1.94;100.00;103250.47;5251866;28;20064;-66
2022/01/25 02:55:22;;;;;;;80.18;40.17;;;;;;;2.00;100.00;103247.81;5256689;28;20029;-66
2022/01/25 02:57:53;;;;;;;77.68;39.28;;;;;;;1.94;100.00;103242.59;5253117;28;20033;-66
2022/01/25 03:00:25;;;;;;;78.63;39.92;;;;;;;2.05;100.00;103242.53;5254389;28;20112;-66
2022/01/25 03:02:56;;;;;;;78.68;40.47;;;;;;;1.99;100.00;103245.19;5254051;28;20059;-66
2022/01/25 03:05:28;;;;;;;77.78;40.72;;;;;;;1.95;100.00;103239.06;5249687;28;21665;-66
2022/01/25 03:08:00;;;;;;;81.40;41.22;;;;;;;1.99;100.00;103239.94;5253377;28;20494;-66
2022/01/25 03:10:37;;;;;;;85.32;41.88;;;;;;;2.05;100.00;103237.28;5251066;28;20036;-66
2022/01/25 03:13:14;;;;;;;85.20;42.97;;;;;;;2.02;100.00;103243.44;5254148;28;20410;-66
2022/01/25 03:21:32;;;;;;;87.68;43.40;;;;;;;2.04;100.00;103225.88;5251577;28;20037;-66
2022/01/25 03:24:05;;;;;;;77.13;40.30;;;;;;;2.04;100.00;103225.00;5254501;28;20406;-66
2022/01/25 03:26:37;;;;;;;85.32;42.15;;;;;;;2.02;100.00;103224.13;5249272;28;20040;-66
2022/01/25 03:29:08;;;;;;;83.82;41.80;;;;;;;2.00;100.00;103226.75;5242053;28;20032;-66
2022/01/25 03:31:40;;;;;;;83.38;42.25;;;;;;;2.10;100.00;103232.88;5248390;28;20490;-66
2022/01/25 03:34:11;;;;;;;84.13;42.40;;;;;;;2.02;100.00;103229.41;5250869;28;20126;-66
2022/01/25 03:36:43;;;;;;;87.90;42.90;;;;;;;2.10;100.00;103219.72;5250773;28;20028;-66
2022/01/25 03:39:14;;;;;;;89.88;43.47;;;;;;;2.05;100.00;103217.09;5248662;28;20035;-66
2022/01/25 03:41:46;;;;;;;91.53;44.10;;;;;;;2.08;100.00;103217.09;5249007;28;20021;-66
2022/01/25 03:44:18;;;;;;;86.20;42.75;;;;;;;2.09;100.00;103221.47;5245495;28;20029;-66
2022/01/25 03:52:12;;;;;;;87.40;42.88;;;;;;;2.15;100.00;103220.59;5251443;28;20041;-66
2022/01/25 03:54:43;;;;;;;86.45;42.35;;;;;;;2.11;100.00;103222.34;5252070;28;20032;-66
2022/01/25 03:57:17;;;;;;;85.40;43.13;;;;;;;2.12;100.00;103224.09;5248007;28;20469;-66
2022/01/25 03:59:48;;;;;;;82.13;41.10;;;;;;;2.10;100.00;103228.50;5252681;28;20067;-66
2022/01/25 04:02:20;;;;;;;88.45;44.25;;;;;;;2.15;100.00;103225.84;5242589;28;20123;-66
2022/01/25 04:04:51;;;;;;;85.50;42.95;;;;;;;2.09;100.00;103229.38;5241331;28;20230;-66
2022/01/25 04:07:31;;;;;;;83.13;42.15;;;;;;;2.18;100.00;103233.72;5244236;28;20476;-66
2022/01/25 04:10:02;;;;;;;85.60;41.47;;;;;;;2.11;100.00;103231.97;5249618;28;20480;-66
2022/01/25 04:12:33;;;;;;;85.68;44.05;;;;;;;2.11;100.00;103230.25;5249603;28;20672;-66
2022/01/25 04:15:05;;;;;;;83.25;40.53;;;;;;;2.12;100.00;103236.38;5244272;28;20143;-66
2022/01/25 04:17:38;;;;;;;77.63;38.60;;;;;;;2.07;100.00;103236.41;5245324;28;20033;-66
2022/01/25 04:20:18;;;;;;;77.63;39.03;;;;;;;2.07;100.00;103225.88;5250935;28;20025;-66
2022/01/25 04:25:39;;;;;;;77.05;38.63;;;;;;;2.06;100.00;103228.50;5246700;28;20467;-66
2022/01/25 04:28:10;;;;;;;69.35;37.08;;;;;;;2.06;100.00;103224.13;5253409;28;20037;-66
2022/01/25 04:30:42;;;;;;;75.25;38.92;;;;;;;2.10;100.00;103227.63;5250631;28;20101;-66
2022/01/25 04:33:19;;;;;;;72.53;37.88;;;;;;;2.09;100.00;103226.75;5246374;28;20095;-66
2022/01/25 04:49:59;;;;;;;73.72;37.38;;;;;;;2.16;100.00;103219.69;5253992;28;20041;-66
2022/01/25 04:52:37;;;;;;;76.03;39.72;;;;;;;2.12;100.00;103224.09;5253133;28;20364;-66
2022/01/25 04:55:23;;;;;;;68.63;35.88;;;;;;;2.13;100.00;103225.00;5249629;28;20043;-66
2022/01/25 04:58:02;;;;;;;71.85;36.75;;;;;;;2.20;100.00;103217.94;5246945;28;20487;-66
2022/01/25 05:00:34;;;;;;;68.25;35.25;;;;;;;2.16;100.00;103215.28;5250280;28;20339;-66
2022/01/25 05:03:12;;;;;;;69.85;36.17;;;;;;;2.13;100.00;103215.31;5250996;28;20021;-66
2022/01/25 05:05:57;;;;;;;70.40;37.20;;;;;;;2.18;100.00;103212.66;5244789;28;20044;-66
2022/01/25 05:08:37;;;;;;;72.28;38.92;;;;;;;2.16;100.00;103217.06;5251163;28;20466;-66
2022/01/25 05:11:15;;;;;;;74.95;37.97;;;;;;;2.25;100.00;103209.13;5249481;28;20052;-66
2022/01/25 05:14:45;;;;;;;70.70;36.65;;;;;;;2.21;100.00;103206.53;5249411;28;20041;-66
2022/01/25 05:17:01;;;;;;;77.60;38.63;;;;;;;2.19;100.00;103210.91;5246949;28;20184;-66
2022/01/25 05:22:22;;;;;;;79.97;39.00;;;;;;;2.26;100.00;103220.53;5249080;28;20028;-66
2022/01/25 05:24:55;;;;;;;75.00;38.60;;;;;;;2.21;100.00;103209.16;5250463;28;20063;-66
2022/01/25 05:27:29;;;;;;;72.60;37.33;;;;;;;2.16;100.00;103209.16;5246280;28;20029;-66
2022/01/25 05:30:00;;;;;;;68.82;36.35;;;;;;;2.14;100.00;103206.53;5244258;28;20071;-66
2022/01/25 05:32:33;;;;;;;72.63;38.35;;;;;;;2.15;100.00;103208.28;5244179;28;20897;-66
2022/01/25 05:35:05;;;;;;;71.03;36.80;;;;;;;2.13;100.00;103206.56;5244580;28;20039;-66
2022/01/25 05:37:41;;;;;;;81.68;40.03;;;;;;;2.16;100.00;103209.16;5242057;28;20029;-66
2022/01/25 05:40:26;;;;;;;73.43;38.45;;;;;;;2.16;100.00;103207.41;5241047;28;20043;-66
2022/01/25 05:46:11;;;;;;;71.80;36.00;;;;;;;2.21;100.00;103201.25;5243864;28;20045;-66
2022/01/25 05:48:43;;;;;;;80.47;37.92;;;;;;;2.27;100.00;103203.88;5251058;28;20056;-66
2022/01/25 05:51:15;;;;;;;79.07;39.45;;;;;;;2.25;100.00;103203.00;5254288;28;20027;-66
2022/01/25 05:53:46;;;;;;;81.05;40.75;;;;;;;2.24;100.00;103209.13;5248263;28;20049;-66
2022/01/25 05:56:17;;;;;;;76.68;39.40;;;;;;;2.29;100.00;103210.88;5246567;28;20513;-66
2022/01/25 05:58:48;;;;;;;82.60;40.53;;;;;;;2.23;100.00;103207.41;5247866;28;20067;-66
2022/01/25 06:01:20;;;;;;;78.90;38.25;;;;;;;2.33;100.00;103198.56;5252591;28;20040;-66
2022/01/25 06:03:53;;;;;;;86.22;42.47;;;;;;;2.32;100.00;103200.34;5255629;28;20025;-66
2022/01/25 06:06:25;;;;;;;87.45;42.88;;;;;;;2.30;100.00;103193.31;5255511;28;20067;-66
2022/01/25 06:08:56;;;;;;;92.75;44.72;;;;;;;2.28;100.00;103211.78;5253157;28;20147;-66
2022/01/25 06:11:27;;;;;;;90.53;43.90;;;;;;;2.35;100.00;103202.94;5254532;28;20461;-66
2022/01/25 06:13:59;;;;;;;87.53;42.40;;;;;;;2.35;100.00;103192.41;5253268;28;20041;-66
2022/01/25 06:16:31;;;;;;;91.85;44.65;;;;;;;2.41;100.00;103193.28;5254007;28;20125;-66
2022/01/25 06:19:02;;;;;;;86.95;43.55;;;;;;;2.39;100.00;103197.66;5252205;28;20780;-66
2022/01/25 06:21:34;;;;;;;85.10;42.80;;;;;;;2.35;100.00;103194.16;5252209;28;20041;-66
2022/01/25 06:24:05;;;;;;;88.90;42.75;;;;;;;2.45;100.00;103200.28;5256662;28;20043;-66
2022/01/25 06:26:37;;;;;;;89.50;43.00;;;;;;;2.40;100.00;103197.66;5252759;28;20074;-66
2022/01/25 06:29:08;;;;;;;90.35;43.67;;;;;;;2.37;100.00;103188.91;5246618;28;20029;-66
2022/01/25 06:31:39;;;;;;;95.25;45.60;;;;;;;2.37;100.00;103192.41;5252718;28;20103;-66
2022/01/25 06:34:10;;;;;;;93.20;45.13;;;;;;;2.38;100.00;103196.81;5256867;28;20033;-66
2022/01/25 06:36:42;;;;;;;91.53;45.15;;;;;;;2.38;100.00;103194.16;5252053;28;20025;-66
2022/01/25 06:39:14;;;;;;;91.63;43.85;;;;;;;2.41;100.00;103195.91;5251292;28;20040;-66
2022/01/25 06:41:47;;;;;;;92.85;44.00;;;;;;;2.41;100.00;103204.66;5252846;28;20127;-66
2022/01/25 06:44:18;;;;;;;88.65;41.05;;;;;;;2.42;100.00;103205.56;5252732;28;20529;-66
2022/01/25 06:46:49;;;;;;;89.47;43.88;;;;;;;2.38;100.00;103198.53;5252241;28;20040;-66
2022/01/25 06:49:20;;;;;;;86.50;42.55;;;;;;;2.37;100.00;103213.47;5256195;28;20067;-66
2022/01/25 06:51:52;;;;;;;92.05;44.88;;;;;;;2.38;100.00;103209.97;5253686;28;20035;-66
2022/01/25 06:54:23;;;;;;;91.40;44.60;;;;;;;2.40;100.00;103195.03;5257658;28;20079;-66
2022/01/25 06:56:54;;;;;;;88.22;43.85;;;;;;;2.39;100.00;103210.84;5255106;28;20501;-66
2022/01/25 06:59:26;;;;;;;86.60;42.95;;;;;;;2.40;100.00;103216.09;5247765;28;20029;-66
2022/01/25 07:01:57;;;;;;;92.50;42.70;;;;;;;2.36;100.00;103217.00;5250585;28;20028;-66
2022/01/25 07:04:28;;;;;;;87.35;43.60;;;;;;;2.42;100.00;103211.72;5250844;28;20536;-66
2022/01/25 07:06:59;;;;;;;87.78;42.92;;;;;;;2.44;100.00;103223.13;5250335;28;20033;-66
2022/01/25 07:09:31;;;;;;;88.40;43.25;;;;;;;2.43;100.00;103218.72;5253657;28;20025;-66
2022/01/25 07:12:03;;;;;;;91.15;44.20;;;;;;;2.41;100.00;103224.88;5253906;28;20395;-67
2022/01/25 07:14:34;;;;;;;89.82;43.35;;;;;;;2.50;100.00;103235.38;5254989;28;20471;-66
2022/01/25 07:17:06;;;;;;;85.72;42.55;;;;;;;2.48;100.00;103230.13;5252504;28;20039;-66
2022/01/25 07:19:38;;;;;;;89.22;43.60;;;;;;;2.52;100.00;103223.94;5255168;28;20418;-66
2022/01/25 07:22:09;;;;;;;85.20;42.95;;;;;;;2.44;100.00;103223.13;5251671;28;20033;-66
2022/01/25 07:24:41;;;;;;;88.82;43.35;;;;;;;2.48;100.00;103219.59;5256105;28;20033;-66
2022/01/25 07:27:12;;;;;;;86.72;42.95;;;;;;;2.45;100.00;103223.97;5254495;28;20098;-66
2022/01/25 07:29:43;;;;;;;84.53;43.17;;;;;;;2.46;100.00;103216.06;5249642;28;20123;-66
2022/01/25 07:32:14;;;;;;;83.13;42.17;;;;;;;2.57;100.00;103225.69;5248602;28;20356;-66
2022/01/25 07:34:46;;;;;;;87.90;44.58;;;;;;;2.54;100.00;103222.19;5250870;28;20060;-66
2022/01/25 07:37:17;;;;;;;90.28;44.38;;;;;;;2.57;100.00;103225.69;5251567;28;20116;-66
2022/01/25 07:39:48;;;;;;;83.72;41.88;;;;;;;2.54;100.00;103222.19;5247276;28;20029;-66
2022/01/25 07:42:20;;;;;;;85.85;42.95;;;;;;;2.50;100.00;103214.31;5250969;28;21476;-66
2022/01/25 07:44:51;;;;;;;84.85;43.92;;;;;;;2.54;100.00;103218.69;5249148;28;20386;-66
2022/01/25 07:47:22;;;;;;;91.55;45.95;;;;;;;2.51;100.00;103224.84;5248573;28;20467;-66
2022/01/25 07:49:54;;;;;;;92.85;44.30;;;;;;;2.58;100.00;103225.69;5249495;28;20115;-66
2022/01/25 07:52:25;;;;;;;87.47;43.65;;;;;;;2.61;100.00;103232.69;5249837;28;20047;-66
2022/01/25 07:54:56;;;;;;;83.07;43.67;;;;;;;2.52;100.00;103223.94;5252191;28;20090;-66
2022/01/25 07:57:27;;;;;;;89.90;45.35;;;;;;;2.58;100.00;103225.69;5250550;28;20037;-66
2022/01/25 08:00:00;;;;;;;91.57;45.60;;;;;;;2.60;100.00;103230.94;5253869;28;20032;-66
2022/01/25 08:02:32;;;;;;;89.88;44.30;;;;;;;2.63;100.00;103226.53;5253230;28;20915;-66
2022/01/25 08:05:04;;;;;;;85.30;45.45;;;;;;;2.67;99.23;103225.66;5253550;28;20060;-66
2022/01/25 08:07:35;;;;;;;88.53;45.47;;;;;;;2.64;99.72;103232.69;5246948;28;20029;-66
2022/01/25 08:10:07;;;;;;;92.82;44.35;;;;;;;2.68;99.72;103239.69;5245041;28;20480;-66
2022/01/25 08:12:39;;;;;;;90.97;45.70;;;;;;;2.60;99.86;103226.56;5248459;28;20053;-66
2022/01/25 08:15:12;;;;;;;92.82;46.08;;;;;;;2.66;98.77;103231.78;5251193;28;20028;-66
2022/01/25 08:17:43;;;;;;;90.63;44.38;;;;;;;2.62;99.38;103218.63;5252164;28;20425;-66
2022/01/25 08:20:14;;;;;;;86.63;43.38;;;;;;;2.72;99.22;103229.16;5254912;28;20032;-66
2022/01/25 08:22:46;;;;;;;93.72;47.20;;;;;;;2.71;99.03;103235.28;5267483;28;20043;-66
2022/01/25 08:25:17;;;;;;;89.97;45.72;;;;;;;2.64;97.67;103237.97;5252677;28;20155;-66
2022/01/25 08:27:49;;;;;;;89.32;44.85;;;;;;;2.73;97.71;103233.50;5253899;28;20107;-66
2022/01/25 08:30:20;;;;;;;93.10;46.97;;;;;;;2.74;98.58;103234.38;5247663;28;20071;-66
2022/01/25 08:32:52;;;;;;;95.47;48.60;;;;;;;2.67;98.22;103245.88;5251332;28;20575;-66
2022/01/25 08:35:23;;;;;;;92.90;46.88;;;;;;;2.73;99.22;103243.19;5251447;28;20036;-66
2022/01/25 08:37:54;;;;;;;93.03;47.78;;;;;;;2.72;100.00;103238.78;5254917;28;20032;-66
2022/01/25 08:40:26;;;;;;;94.28;46.00;;;;;;;2.78;100.00;103241.41;5251992;28;20059;-67
2022/01/25 08:42:57;;;;;;;95.18;46.67;;;;;;;2.82;100.00;103240.50;5253956;28;20031;-66
2022/01/25 08:45:28;;;;;;;89.05;45.38;;;;;;;2.78;99.06;103243.16;5252507;28;20494;-66
2022/01/25 08:48:00;;;;;;;94.00;45.78;;;;;;;2.77;97.94;103237.00;5251405;28;20075;-66
2022/01/25 08:50:31;;;;;;;94.65;47.17;;;;;;;2.82;97.83;103243.16;5254418;28;20028;-66
2022/01/25 08:53:02;;;;;;;101.05;51.90;;;;;;;2.75;94.75;103242.28;5254753;28;20562;-66
2022/01/25 08:55:34;;;;;;;99.78;49.42;;;;;;;2.84;96.20;103246.66;5253840;28;20382;-66
2022/01/25 08:58:05;;;;;;;102.20;51.03;;;;;;;2.84;96.23;103249.28;5253488;28;20106;-66
2022/01/25 09:00:37;;;;;;;110.70;53.92;;;;;;;2.88;97.21;103250.16;5246662;28;20024;-66
2022/01/25 09:03:08;;;;;;;109.13;54.17;;;;;;;2.79;94.04;103253.69;5249903;28;20073;-66
2022/01/25 09:05:39;;;;;;;106.43;52.33;;;;;;;2.84;95.46;103251.03;5251742;28;20031;-66
2022/01/25 09:08:16;;;;;;;114.57;53.88;;;;;;;2.86;96.11;103257.19;5251272;28;20040;-66
2022/01/25 09:10:51;;;;;;;112.53;54.95;;;;;;;2.85;97.30;103248.38;5248896;28;20032;-66
2022/01/25 09:13:23;;;;;;;115.35;55.47;;;;;;;2.94;96.66;103247.47;5246133;28;20037;-66
2022/01/25 09:15:55;;;;;;;110.90;54.95;;;;;;;2.97;96.14;103252.72;5250902;28;20098;-66
2022/01/25 09:18:27;;;;;;;107.20;53.63;;;;;;;3.04;96.57;103253.56;5249426;28;20119;-66
2022/01/25 09:20:59;;;;;;;108.88;53.78;;;;;;;3.04;96.44;103253.56;5249976;28;20060;-66
2022/01/25 09:23:31;;;;;;;116.20;57.40;;;;;;;3.02;96.74;103252.69;5247005;28;20060;-66
2022/01/25 09:26:04;;;;;;;115.15;55.72;;;;;;;3.06;96.60;103254.44;5239461;28;20394;-66
2022/01/25 09:28:35;;;;;;;113.45;55.72;;;;;;;2.99;96.42;103258.84;5244919;28;20053;-66
2022/01/25 09:31:07;;;;;;;116.72;57.83;;;;;;;3.08;96.75;103258.81;5250835;28;20526;-66
2022/01/25 09:33:38;;;;;;;123.57;59.67;;;;;;;3.07;97.08;103257.06;5252103;28;20060;-66
2022/01/25 09:36:09;;;;;;;124.78;60.08;;;;;;;3.13;96.50;103258.78;5251672;28;20047;-66
2022/01/25 09:38:41;;;;;;;121.75;59.00;;;;;;;3.16;95.33;103258.75;5253505;28;20824;-66
2022/01/25 09:41:12;;;;;;;122.28;58.28;;;;;;;3.17;97.10;103255.25;5253089;28;20041;-66
2022/01/25 09:43:44;;;;;;;121.15;57.70;;;;;;;3.24;98.30;103251.69;5253743;28;20111;-66
2022/01/25 09:46:16;;;;;;;124.25;59.53;;;;;;;3.22;97.59;103260.47;5250064;28;20041;-66
2022/01/25 09:48:48;;;;;;;126.95;61.33;;;;;;;3.28;96.43;103270.97;5250854;28;20110;-66
2022/01/25 09:51:20;;;;;;;119.68;56.90;;;;;;;3.24;96.84;103264.88;5252316;28;20036;-66
2022/01/25 09:53:51;;;;;;;126.25;59.95;;;;;;;3.26;95.58;103276.28;5253427;28;20025;-66
2022/01/25 09:56:22;;;;;;;122.28;59.53;;;;;;;3.30;94.55;103274.50;5254555;28;20505;-66
2022/01/25 09:58:54;;;;;;;117.47;57.65;;;;;;;3.30;93.95;103262.19;5251508;28;20501;-66
2022/01/25 10:01:27;;;;;;;118.43;56.92;;;;;;;3.36;95.49;103278.84;5249338;28;20083;-66
2022/01/25 10:04:00;;;;;;;116.93;55.90;;;;;;;3.32;94.38;103270.97;5250118;28;20037;-66
2022/01/25 10:06:33;;;;;;;114.32;56.30;;;;;;;3.41;95.73;103267.38;5250970;28;20047;-66
2022/01/25 10:09:05;;;;;;;114.53;56.95;;;;;;;3.42;94.62;103276.19;5252249;28;20647;-66
2022/01/25 10:11:37;;;;;;;108.20;54.78;;;;;;;3.44;93.99;103280.56;5254812;28;20082;-66
2022/01/25 10:14:09;;;;;;;108.95;53.67;;;;;;;3.49;95.23;103280.50;5251145;28;20057;-66
2022/01/25 10:16:43;;;;;;;106.95;53.00;;;;;;;3.54;93.17;103273.44;5251705;28;20066;-66
2022/01/25 10:19:14;;;;;;;106.90;52.97;;;;;;;3.54;93.90;103276.06;5251634;28;20048;-66
2022/01/25 10:21:51;;;;;;;105.25;53.78;;;;;;;3.59;92.36;103278.69;5252343;28;20025;-66
2022/01/25 10:24:25;;;;;;;107.93;54.40;;;;;;;3.67;94.37;103284.78;5253452;28;20029;-66
2022/01/25 10:27:06;;;;;;;106.57;54.25;;;;;;;3.66;93.25;103281.28;5248948;28;20028;-66
2022/01/25 10:29:37;;;;;;;105.00;54.22;;;;;;;3.64;93.12;103272.47;5248162;28;20051;-66
2022/01/25 10:32:13;;;;;;;110.95;54.80;;;;;;;3.70;93.00;103277.72;5253832;28;20036;-66
2022/01/25 10:34:49;;;;;;;107.75;54.85;;;;;;;3.64;92.03;103276.88;5249444;28;20029;-66
2022/01/25 10:37:24;;;;;;;107.82;54.50;;;;;;;3.65;93.00;103278.63;5250056;28;20533;-66
2022/01/25 10:39:56;;;;;;;109.68;55.75;;;;;;;3.67;93.13;103280.38;5253116;28;20108;-66
2022/01/25 10:42:30;;;;;;;106.90;55.50;;;;;;;3.79;92.98;103279.38;5256661;28;20405;-66
2022/01/25 10:45:10;;;;;;;109.43;54.72;;;;;;;3.81;91.33;103274.97;5255172;28;20586;-66
2022/01/25 10:47:45;;;;;;;103.20;53.85;;;;;;;3.86;90.43;103278.44;5257127;28;20033;-66
2022/01/25 10:50:17;;;;;;;109.03;54.55;;;;;;;3.87;92.97;103277.56;5255086;28;20485;-66
2022/01/25 10:53:08;;;;;;;104.43;53.90;;;;;;;3.96;91.75;103273.94;5256663;28;20060;-66
2022/01/25 10:55:45;;;;;;;103.90;53.72;;;;;;;3.97;91.60;103270.44;5252668;28;20037;-66
2022/01/25 10:58:17;;;;;;;104.13;52.95;;;;;;;3.92;91.28;103274.88;5255424;28;20461;-66
2022/01/25 11:00:51;;;;;;;104.03;53.33;;;;;;;4.00;89.99;103280.09;5255265;28;20032;-66
2022/01/25 11:03:30;;;;;;;101.75;53.17;;;;;;;3.98;90.38;103266.88;5255898;28;20032;-66
2022/01/25 11:06:15;;;;;;;107.68;54.67;;;;;;;4.03;89.66;103280.94;5252769;28;20036;-66
2022/01/25 11:08:48;;;;;;;103.57;52.63;;;;;;;4.03;89.37;103270.38;5255153;28;20033;-66
2022/01/25 11:11:45;;;;;;;106.00;53.25;;;;;;;4.04;91.32;103271.22;5254897;28;20024;-66
2022/01/25 11:17:06;;;;;;;108.63;54.67;;;;;;;4.06;91.30;103272.97;5252059;28;20044;-66
2022/01/25 11:19:37;;;;;;;101.30;52.88;;;;;;;4.09;89.27;103278.22;5253718;28;20025;-66
2022/01/25 11:22:17;;;;;;;101.72;52.75;;;;;;;4.04;89.04;103287.09;5250778;28;20029;-66
2022/01/25 11:24:57;;;;;;;98.15;52.05;;;;;;;4.08;90.84;103280.88;5254972;28;20037;-67
2022/01/25 11:27:30;;;;;;;106.50;54.38;;;;;;;4.09;88.80;103278.22;5257623;28;20032;-67
2022/01/25 11:30:11;;;;;;;111.35;56.28;;;;;;;4.08;89.63;103284.38;5250576;28;20519;-67
2022/01/25 11:32:45;;;;;;;100.18;53.13;;;;;;;3.97;87.89;103274.81;5252325;28;20451;-67
2022/01/25 11:35:23;;;;;;;104.35;54.47;;;;;;;4.03;88.60;103280.94;5253087;28;20536;-67
2022/01/25 11:37:55;;;;;;;103.03;53.72;;;;;;;4.03;88.59;103277.44;5253005;28;20032;-67
2022/01/25 11:40:37;;;;;;;104.80;54.33;;;;;;;4.01;89.12;103279.19;5253816;28;20025;-67
2022/01/25 11:43:11;;;;;;;108.85;55.65;;;;;;;4.05;89.27;103281.78;5255510;28;20477;-67
2022/01/25 11:45:49;;;;;;;103.30;54.67;;;;;;;4.11;89.07;103272.94;5251454;28;20064;-67
2022/01/25 11:48:33;;;;;;;105.22;55.58;;;;;;;4.05;90.33;103278.28;5253786;28;20730;-67
2022/01/25 11:51:12;;;;;;;103.85;53.70;;;;;;;4.09;88.57;103283.50;5251595;28;20058;-67
2022/01/25 11:53:50;;;;;;;104.50;53.20;;;;;;;4.06;88.18;103265.03;5251442;28;20477;-67
2022/01/25 11:56:25;;;;;;;100.95;52.50;;;;;;;4.02;86.40;103273.03;5252608;28;20032;-67
2022/01/25 11:58:58;;;;;;;102.22;51.92;;;;;;;4.08;86.86;103267.66;5248368;28;20037;-67
2022/01/25 12:01:30;;;;;;;100.63;51.30;;;;;;;4.12;88.66;103264.09;5252847;28;20055;-67
2022/01/25 12:04:06;;;;;;;96.88;52.53;;;;;;;3.99;84.47;103270.41;5254777;28;20091;-67
2022/01/25 12:06:43;;;;;;;102.60;50.40;;;;;;;4.05;86.13;103268.59;5255896;28;20033;-67
2022/01/25 12:09:41;;;;;;;108.25;55.53;;;;;;;4.04;88.66;103263.31;5254754;28;20028;-67
2022/01/25 12:12:12;;;;;;;105.97;53.60;;;;;;;4.02;87.05;103258.03;5254483;28;20040;-67
2022/01/25 12:14:46;;;;;;;108.90;54.05;;;;;;;4.13;90.23;103263.22;5250589;28;20119;-67
2022/01/25 12:17:24;;;;;;;109.38;54.08;;;;;;;4.19;87.33;103259.63;5254382;28;20025;-67
2022/01/25 12:19:58;;;;;;;102.93;53.00;;;;;;;4.24;88.07;103253.41;5250507;28;20120;-67
2022/01/25 12:22:42;;;;;;;99.57;51.40;;;;;;;4.31;86.97;103257.75;5254721;28;20593;-67
2022/01/25 12:25:22;;;;;;;102.90;52.25;;;;;;;4.34;87.26;103258.59;5253459;28;20028;-67
2022/01/25 12:27:59;;;;;;;107.38;53.58;;;;;;;4.28;88.85;103256.91;5254457;28;20031;-67
2022/01/25 12:30:38;;;;;;;105.20;53.88;;;;;;;4.23;86.71;103256.94;5254353;28;20025;-67
2022/01/25 12:33:15;;;;;;;100.93;53.20;;;;;;;4.35;87.37;103244.47;5255626;28;20110;-67
2022/01/25 12:35:52;;;;;;;100.18;52.47;;;;;;;4.26;87.76;103245.47;5253903;28;20106;-67
2022/01/25 12:38:27;;;;;;;103.55;52.40;;;;;;;4.19;86.13;103243.78;5253310;28;20052;-67
2022/01/25 12:41:25;;;;;;;104.47;54.20;;;;;;;4.22;88.52;103243.72;5255960;28;20501;-67
2022/01/25 12:43:59;;;;;;;97.35;52.78;;;;;;;4.31;87.93;103239.25;5253774;28;20365;-67
2022/01/25 12:46:40;;;;;;;;;;;;;;;4.44;90.07;103236.44;5255378;28;20119;-67
2022/01/25 12:49:15;;;;;;;99.13;50.38;;;;;;;4.36;89.02;103240.97;5252525;28;19921;-67
2022/01/25 12:51:51;;;;;;;100.93;52.33;;;;;;;4.35;89.44;103239.19;5250983;28;20021;-67
2022/01/25 12:54:25;;;;;;;100.93;53.17;;;;;;;4.32;87.02;103229.53;5252873;28;20056;-67
2022/01/25 12:56:58;;;;;;;98.47;52.40;;;;;;;4.28;86.75;103231.34;5248961;28;20029;-67
2022/01/25 12:59:33;;;;;;;98.93;51.47;;;;;;;4.29;88.84;103229.56;5250073;28;20110;-67
2022/01/25 13:02:04;;;;;;;96.50;50.95;;;;;;;4.27;88.59;103218.13;5253122;28;20064;-67
2022/01/25 13:04:36;;;;;;;98.38;51.08;;;;;;;4.28;89.25;103226.06;5243668;28;20127;-67
2022/01/25 13:07:07;;;;;;;101.07;51.47;;;;;;;4.27;89.12;103215.50;5253503;28;20087;-67
2022/01/25 13:09:43;;;;;;;96.82;51.55;;;;;;;4.32;87.95;103208.41;5253087;28;20039;-67
2022/01/25 13:12:24;;;;;;;95.30;49.72;;;;;;;4.27;89.09;103204.94;5250701;28;20164;-67
2022/01/25 13:15:15;;;;;;;95.05;49.67;;;;;;;4.32;86.60;103190.78;5247553;28;20048;-67
2022/01/25 13:17:46;;;;;;;101.75;52.03;;;;;;;4.28;87.91;103196.13;5247784;28;20044;-67
2022/01/25 13:20:21;;;;;;;97.63;50.28;;;;;;;4.38;86.76;103194.25;5253014;28;20047;-67